Time;durP1;ratioP1;P1;durP2;ratioP2;P2;SDS_P1;SDS_P2;PMS_P1;PMS_P2;Temp;Humidity;BMP_temperature;BMP_pressure;BME280_temperature;BME280_humidity;BME280_pressure;Samples;Min_cycle;Max_cycle;Signal;HPM_P1;HPM_P2
2021/11/07 00:02:23;;;;;;;30.73;24.40;;;10.60;99.90;;;;;;5075519;28;20052;-72
2021/11/07 00:04:58;;;;;;;31.15;23.75;;;10.60;99.90;;;;;;5073607;28;20053;-72
2021/11/07 00:07:30;;;;;;;31.48;24.48;;;10.70;99.90;;;;;;5086576;28;20513;-72
2021/11/07 00:12:43;;;;;;;28.00;21.88;;;10.70;99.90;;;;;;5082003;28;20084;-72
2021/11/07 00:15:11;;;;;;;22.90;19.85;;;10.70;99.90;;;;;;5067380;28;20621;-71
2021/11/07 00:17:38;;;;;;;26.95;21.50;;;10.70;99.90;;;;;;5055702;28;20047;-72
2021/11/07 00:20:12;;;;;;;25.90;19.23;;;10.80;99.90;;;;;;5063380;28;20230;-72
2021/11/07 00:27:49;;;;;;;28.52;19.55;;;10.90;99.90;;;;;;5058870;28;20040;-73
2021/11/07 00:31:03;;;;;;;24.95;18.40;;;10.90;99.90;;;;;;5074322;28;20040;-72
2021/11/07 00:34:27;;;;;;;23.75;17.67;;;10.90;99.90;;;;;;5065067;28;20043;-73
2021/11/07 00:36:19;;;;;;;21.33;16.58;;;10.90;99.90;;;;;;5062558;28;20055;-72
2021/11/07 00:39:30;;;;;;;21.83;16.63;;;10.90;99.90;;;;;;5066211;28;20589;-72
2021/11/07 00:44:14;;;;;;;19.58;16.35;;;11.00;99.90;;;;;;5062382;28;20047;-72
2021/11/07 00:46:45;;;;;;;19.92;14.10;;;11.00;99.90;;;;;;5068686;28;20395;-72
2021/11/07 00:49:18;;;;;;;20.98;15.35;;;11.00;99.90;;;;;;5081365;28;20113;-71
2021/11/07 00:54:28;;;;;;;23.02;16.65;;;11.00;99.90;;;;;;5082943;28;20062;-73
2021/11/07 00:57:01;;;;;;;16.75;10.98;;;11.00;99.90;;;;;;5075401;28;20052;-72
2021/11/07 01:02:12;;;;;;;15.13;10.15;;;11.10;99.90;;;;;;5103634;28;20052;-72
2021/11/07 01:04:38;;;;;;;16.35;9.50;;;11.10;99.90;;;;;;5100661;28;20055;-72
2021/11/07 01:07:04;;;;;;;13.93;7.95;;;11.10;99.90;;;;;;5087345;28;20536;-71
2021/11/07 01:09:30;;;;;;;15.57;7.55;;;11.10;99.90;;;;;;5089969;28;20119;-71
2021/11/07 01:11:56;;;;;;;18.65;8.13;;;11.10;99.90;;;;;;5104981;28;20151;-71
2021/11/07 01:14:22;;;;;;;22.70;8.95;;;11.10;99.90;;;;;;5106512;28;20048;-72
2021/11/07 01:16:47;;;;;;;18.45;9.02;;;11.10;99.90;;;;;;5089373;28;20038;-71
2021/11/07 01:19:13;;;;;;;18.40;8.30;;;11.10;99.90;;;;;;5090036;28;20058;-72
2021/11/07 01:21:42;;;;;;;20.35;9.00;;;11.20;99.90;;;;;;5089679;28;20135;-71
2021/11/07 01:24:15;;;;;;;22.38;10.15;;;11.10;99.90;;;;;;5107292;28;20565;-71
2021/11/07 01:26:44;;;;;;;22.52;9.88;;;11.20;99.90;;;;;;5106541;28;20043;-71
2021/11/07 01:29:14;;;;;;;17.67;8.77;;;11.20;99.90;;;;;;5091386;28;20050;-71
2021/11/07 01:31:41;;;;;;;20.67;8.65;;;11.20;99.90;;;;;;5106089;28;20047;-71
2021/11/07 01:34:12;;;;;;;18.40;9.45;;;11.20;99.90;;;;;;5108361;28;20036;-72
2021/11/07 01:36:45;;;;;;;21.75;9.55;;;11.20;99.90;;;;;;5106037;28;20078;-72
2021/11/07 01:42:12;;;;;;;18.92;8.45;;;11.20;99.90;;;;;;5090120;28;20040;-72
2021/11/07 01:44:48;;;;;;;22.42;8.88;;;11.30;99.90;;;;;;5090677;28;20047;-71
2021/11/07 01:47:15;;;;;;;24.13;8.85;;;11.30;99.90;;;;;;5108518;28;20054;-72
2021/11/07 01:49:42;;;;;;;25.65;9.18;;;11.30;99.90;;;;;;5089351;28;20043;-72
2021/11/07 01:52:09;;;;;;;25.98;9.43;;;11.30;99.90;;;;;;5107120;28;20079;-72
2021/11/07 01:54:57;;;;;;;23.98;8.38;;;11.40;99.90;;;;;;5106812;28;20040;-72
2021/11/07 01:57:30;;;;;;;22.55;8.18;;;11.30;99.90;;;;;;5105226;28;20039;-72
2021/11/07 02:00:01;;;;;;;29.77;9.35;;;11.30;99.90;;;;;;5106561;28;20051;-72
2021/11/07 02:02:30;;;;;;;25.75;8.40;;;11.30;99.90;;;;;;5103998;28;20055;-71
2021/11/07 02:04:57;;;;;;;27.73;9.10;;;11.30;99.90;;;;;;5107064;28;20050;-72
2021/11/07 02:07:23;;;;;;;29.88;8.88;;;11.30;99.90;;;;;;5107638;28;20035;-72
2021/11/07 02:09:49;;;;;;;28.20;8.95;;;11.30;99.90;;;;;;5107922;28;20048;-72
2021/11/07 02:12:17;;;;;;;30.48;9.35;;;11.30;99.90;;;;;;5106337;28;20089;-71
2021/11/07 02:14:43;;;;;;;34.90;10.57;;;11.30;99.90;;;;;;5089122;28;20047;-72
2021/11/07 02:17:10;;;;;;;26.13;9.20;;;11.30;99.90;;;;;;5107885;28;20032;-72
2021/11/07 02:19:37;;;;;;;30.83;9.35;;;11.30;99.90;;;;;;5105305;28;20082;-71
2021/11/07 02:22:03;;;;;;;24.88;8.70;;;11.30;99.90;;;;;;5104604;28;20032;-73
2021/11/07 02:24:35;;;;;;;21.52;8.13;;;11.30;99.90;;;;;;5105785;28;20047;-71
2021/11/07 02:27:02;;;;;;;25.30;8.27;;;11.30;99.90;;;;;;5107511;28;20040;-72
2021/11/07 02:29:32;;;;;;;25.80;8.00;;;11.30;99.90;;;;;;5089285;28;20055;-72
2021/11/07 02:31:57;;;;;;;20.92;7.60;;;11.30;99.90;;;;;;5104143;28;20547;-71
2021/11/07 02:34:29;;;;;;;24.85;7.68;;;11.20;99.90;;;;;;5104146;28;20047;-74
2021/11/07 02:36:56;;;;;;;24.23;7.43;;;11.20;99.90;;;;;;5089315;28;20125;-75
2021/11/07 02:39:23;;;;;;;27.42;7.90;;;11.20;99.90;;;;;;5107954;28;20040;-71
2021/11/07 02:41:49;;;;;;;27.23;7.40;;;11.20;99.90;;;;;;5103660;28;20050;-71
2021/11/07 02:44:28;;;;;;;27.10;7.90;;;11.10;99.90;;;;;;5108019;28;20032;-71
2021/11/07 02:46:54;;;;;;;22.80;7.22;;;11.10;99.90;;;;;;5105246;28;20043;-72
2021/11/07 02:49:21;;;;;;;25.67;7.07;;;11.00;99.90;;;;;;5107871;28;20115;-71
2021/11/07 02:51:47;;;;;;;25.27;7.38;;;11.00;99.90;;;;;;5105959;28;20470;-72
2021/11/07 02:54:13;;;;;;;20.92;6.10;;;10.90;99.90;;;;;;5107854;28;20096;-71
2021/11/07 02:56:39;;;;;;;26.38;7.07;;;10.90;99.90;;;;;;5100502;28;20117;-72
2021/11/07 02:59:07;;;;;;;27.77;8.05;;;10.80;99.90;;;;;;5107399;28;20524;-71
2021/11/07 03:01:36;;;;;;;26.55;6.40;;;10.80;99.90;;;;;;5102251;28;20047;-71
2021/11/07 03:04:08;;;;;;;22.25;5.90;;;10.70;99.90;;;;;;5090496;28;20052;-71
2021/11/07 03:06:37;;;;;;;29.00;6.85;;;10.70;99.90;;;;;;5108832;28;20374;-73
2021/11/07 03:09:06;;;;;;;28.52;6.15;;;10.60;99.90;;;;;;5108862;28;20119;-72
2021/11/07 03:11:42;;;;;;;24.45;5.53;;;10.60;99.90;;;;;;5106388;28;20141;-71
2021/11/07 03:14:22;;;;;;;24.52;5.93;;;10.50;99.90;;;;;;5106637;28;20047;-72
2021/11/07 03:16:49;;;;;;;18.65;5.75;;;10.40;99.90;;;;;;5107065;28;20043;-72
2021/11/07 03:19:16;;;;;;;23.92;5.13;;;10.40;99.90;;;;;;5107573;28;20084;-72
2021/11/07 03:21:42;;;;;;;28.58;6.18;;;10.40;99.90;;;;;;5110215;28;20450;-72
2021/11/07 03:24:11;;;;;;;18.85;5.65;;;10.30;99.90;;;;;;5089942;28;20177;-72
2021/11/07 03:26:38;;;;;;;26.08;5.90;;;10.30;99.90;;;;;;5087926;28;20097;-71
2021/11/07 03:29:06;;;;;;;31.38;5.78;;;10.30;99.90;;;;;;5091933;28;20040;-71
2021/11/07 03:31:43;;;;;;;22.23;5.50;;;10.20;99.90;;;;;;5106261;28;20052;-72
2021/11/07 03:34:16;;;;;;;28.08;5.93;;;10.20;99.90;;;;;;5106983;28;20039;-72
2021/11/07 03:36:51;;;;;;;27.33;5.45;;;10.20;99.90;;;;;;5106844;28;20058;-71
2021/11/07 03:39:18;;;;;;;28.85;5.47;;;10.20;99.90;;;;;;5110466;28;20040;-71
2021/11/07 03:41:45;;;;;;;32.25;6.28;;;10.20;99.90;;;;;;5111606;28;20471;-71
2021/11/07 03:44:13;;;;;;;25.02;5.03;;;10.10;99.90;;;;;;5111208;28;20073;-71
2021/11/07 03:46:39;;;;;;;24.45;6.03;;;10.10;99.90;;;;;;5111995;28;20054;-71
2021/11/07 03:49:07;;;;;;;26.85;6.22;;;10.10;99.90;;;;;;5112276;28;20192;-71
2021/11/07 03:51:35;;;;;;;23.40;5.03;;;10.10;99.90;;;;;;5094030;28;20054;-71
2021/11/07 03:54:01;;;;;;;21.23;5.78;;;10.10;99.90;;;;;;5112598;28;20043;-70
2021/11/07 03:56:27;;;;;;;27.83;5.90;;;10.10;99.90;;;;;;5110391;28;20455;-74
2021/11/07 03:58:53;;;;;;;27.52;6.13;;;10.00;99.90;;;;;;5111879;28;20048;-71
2021/11/07 04:01:20;;;;;;;23.15;5.28;;;10.00;99.90;;;;;;5110650;28;20090;-71
2021/11/07 04:03:46;;;;;;;27.48;5.72;;;10.00;99.90;;;;;;5110230;28;20040;-71
2021/11/07 04:06:13;;;;;;;22.30;5.28;;;9.90;99.90;;;;;;5111967;28;20040;-71
2021/11/07 04:08:43;;;;;;;26.75;6.47;;;9.90;99.90;;;;;;5112090;28;20109;-71
2021/11/07 04:11:09;;;;;;;26.92;5.78;;;9.80;99.90;;;;;;5094778;28;20047;-71
2021/11/07 04:13:39;;;;;;;22.42;4.25;;;9.80;99.90;;;;;;5112284;28;20043;-71
2021/11/07 04:16:06;;;;;;;;;;;9.70;99.90;;;;;;5111327;28;20474;-71
2021/11/07 04:18:37;;;;;;;23.48;5.90;;;9.70;99.90;;;;;;5112029;28;20287;-71
2021/11/07 04:21:04;;;;;;;20.42;4.65;;;9.70;99.90;;;;;;5110333;28;20708;-72
2021/11/07 04:23:30;;;;;;;21.80;5.15;;;9.60;99.90;;;;;;5112208;28;20043;-71
2021/11/07 04:25:56;;;;;;;27.52;4.95;;;9.60;99.90;;;;;;5109062;28;20490;-71
2021/11/07 04:28:26;;;;;;;30.75;5.55;;;9.60;99.90;;;;;;5112386;28;20696;-71
2021/11/07 04:30:52;;;;;;;23.50;5.32;;;9.60;99.90;;;;;;5109821;28;20054;-71
2021/11/07 04:33:18;;;;;;;29.83;5.38;;;9.70;99.90;;;;;;5110931;28;20118;-71
2021/11/07 04:35:44;;;;;;;22.63;5.20;;;9.60;99.90;;;;;;5110648;28;20550;-72
2021/11/07 04:38:10;;;;;;;25.58;5.13;;;9.60;99.90;;;;;;5110124;28;20343;-71
2021/11/07 04:40:36;;;;;;;27.98;5.15;;;9.60;99.90;;;;;;5111215;28;20169;-71
2021/11/07 04:43:02;;;;;;;20.88;4.88;;;9.60;99.90;;;;;;5111386;28;20171;-71
2021/11/07 04:45:27;;;;;;;22.30;5.03;;;9.60;99.90;;;;;;5111417;28;20077;-72
2021/11/07 04:47:54;;;;;;;24.58;5.28;;;9.50;99.90;;;;;;5109387;28;20721;-71
2021/11/07 04:50:20;;;;;;;19.10;4.80;;;9.50;99.90;;;;;;5109203;28;20452;-70
2021/11/07 04:52:47;;;;;;;21.77;4.47;;;9.50;99.90;;;;;;5110447;28;20038;-71
2021/11/07 04:55:14;;;;;;;30.25;6.03;;;9.50;99.90;;;;;;5108190;28;20051;-72
2021/11/07 04:57:43;;;;;;;18.55;4.70;;;9.40;99.90;;;;;;5090439;28;20146;-72
2021/11/07 05:00:14;;;;;;;25.63;5.55;;;9.40;99.90;;;;;;5105653;28;20039;-71
2021/11/07 05:02:43;;;;;;;23.50;4.75;;;9.40;99.90;;;;;;5107288;28;20131;-71
2021/11/07 05:05:09;;;;;;;23.27;5.13;;;9.40;99.90;;;;;;5110639;28;20398;-72
2021/11/07 05:07:35;;;;;;;20.83;4.63;;;9.30;99.90;;;;;;5110471;28;20285;-74
2021/11/07 05:10:01;;;;;;;26.38;5.55;;;9.40;99.90;;;;;;5110801;28;20052;-71
2021/11/07 05:12:28;;;;;;;22.88;4.95;;;9.40;99.90;;;;;;5109788;28;20047;-71
2021/11/07 05:14:55;;;;;;;19.77;4.78;;;9.50;99.90;;;;;;5109477;28;20181;-71
2021/11/07 05:17:21;;;;;;;26.10;5.68;;;9.50;99.90;;;;;;5111383;28;20043;-71
2021/11/07 05:19:47;;;;;;;19.15;4.63;;;9.50;99.90;;;;;;5109052;28;20043;-71
2021/11/07 05:22:13;;;;;;;27.23;4.38;;;9.50;99.90;;;;;;5109329;28;20069;-71
2021/11/07 05:24:41;;;;;;;21.35;4.93;;;9.50;99.90;;;;;;5108290;28;20051;-70
2021/11/07 05:27:07;;;;;;;18.17;4.13;;;9.50;99.90;;;;;;5110074;28;20192;-71
2021/11/07 05:29:33;;;;;;;21.30;4.68;;;9.50;99.90;;;;;;5110194;28;20043;-71
2021/11/07 05:32:00;;;;;;;23.60;5.05;;;9.40;99.90;;;;;;5108756;28;20493;-71
2021/11/07 05:34:27;;;;;;;17.23;3.92;;;9.40;99.90;;;;;;5092469;28;20501;-71
2021/11/07 05:36:54;;;;;;;19.25;4.38;;;9.40;99.90;;;;;;5108587;28;20082;-71
2021/11/07 05:39:21;;;;;;;22.02;4.30;;;9.40;99.90;;;;;;5110417;28;20747;-71
2021/11/07 05:41:47;;;;;;;21.73;4.68;;;9.40;99.90;;;;;;5108733;28;20047;-71
2021/11/07 05:44:14;;;;;;;22.10;4.43;;;9.30;99.90;;;;;;5110053;28;20688;-71
2021/11/07 05:46:40;;;;;;;22.08;5.45;;;9.30;99.90;;;;;;5108077;28;20036;-71
2021/11/07 05:49:06;;;;;;;19.05;4.25;;;9.20;99.90;;;;;;5110401;28;20042;-71
2021/11/07 05:51:32;;;;;;;22.75;5.10;;;9.20;99.90;;;;;;5108430;28;20414;-71
2021/11/07 05:54:01;;;;;;;21.17;5.05;;;9.20;99.90;;;;;;5110077;28;20100;-72
2021/11/07 05:56:27;;;;;;;22.83;4.72;;;9.20;99.90;;;;;;5117026;27;20077;-71
2021/11/07 05:58:54;;;;;;;21.10;4.30;;;9.20;99.90;;;;;;5130837;27;20560;-71
2021/11/07 06:01:19;;;;;;;19.63;4.03;;;9.20;99.90;;;;;;5099713;28;20056;-71
2021/11/07 06:03:45;;;;;;;28.83;5.38;;;9.30;99.90;;;;;;5110300;28;20039;-71
2021/11/07 06:06:12;;;;;;;18.73;4.85;;;9.30;99.90;;;;;;5091689;28;20075;-70
2021/11/07 06:08:38;;;;;;;21.20;4.28;;;9.30;99.90;;;;;;5091301;28;20047;-71
2021/11/07 06:11:04;;;;;;;22.30;4.93;;;9.40;99.90;;;;;;5114017;27;20039;-70
2021/11/07 06:13:30;;;;;;;13.65;3.33;;;9.40;99.90;;;;;;5130581;27;20039;-71
2021/11/07 06:16:02;;;;;;;20.15;3.78;;;9.50;99.90;;;;;;5130115;27;20039;-70
2021/11/07 06:18:29;;;;;;;21.50;2.90;;;9.50;99.90;;;;;;5130906;27;20043;-71
2021/11/07 06:20:59;;;;;;;17.48;3.10;;;9.60;99.90;;;;;;5077714;27;20118;-71
2021/11/07 06:23:25;;;;;;;16.85;3.13;;;9.50;99.90;;;;;;5120095;27;20051;-72
2021/11/07 06:25:52;;;;;;;14.90;3.53;;;9.50;99.90;;;;;;5114879;27;20110;-72
2021/11/07 06:28:19;;;;;;;11.25;2.70;;;9.40;99.90;;;;;;5109515;28;20082;-71
2021/11/07 06:30:48;;;;;;;12.27;3.20;;;9.40;99.90;;;;;;5107199;27;20138;-72
2021/11/07 06:33:15;;;;;;;10.05;2.40;;;9.30;99.90;;;;;;5129334;27;20095;-72
2021/11/07 06:35:41;;;;;;;13.25;2.80;;;9.30;99.90;;;;;;5129895;27;20039;-71
2021/11/07 06:38:07;;;;;;;11.95;2.95;;;9.30;99.90;;;;;;5095919;28;20047;-71
2021/11/07 06:40:34;;;;;;;21.02;3.90;;;9.30;99.90;;;;;;5108786;28;20059;-72
2021/11/07 06:43:01;;;;;;;11.90;2.33;;;9.30;99.90;;;;;;5114107;27;20048;-73
2021/11/07 06:45:27;;;;;;;13.35;2.92;;;9.20;99.90;;;;;;5124324;27;20086;-73
2021/11/07 06:47:53;;;;;;;17.40;3.65;;;9.20;99.90;;;;;;5144823;27;20096;-72
2021/11/07 06:50:19;;;;;;;14.48;2.90;;;9.10;99.90;;;;;;5122584;27;20043;-73
2021/11/07 06:52:46;;;;;;;13.57;2.70;;;9.10;99.90;;;;;;5116961;27;20107;-72
2021/11/07 06:55:13;;;;;;;23.23;3.30;;;9.00;99.90;;;;;;5109311;28;20059;-72
2021/11/07 06:57:39;;;;;;;16.10;2.80;;;9.00;99.90;;;;;;5108661;28;20055;-72
2021/11/07 07:00:09;;;;;;;17.83;4.00;;;8.90;99.90;;;;;;5128803;28;20419;-72
2021/11/07 07:02:35;;;;;;;16.77;3.10;;;8.90;99.90;;;;;;5128998;28;20119;-72
2021/11/07 07:05:03;;;;;;;14.77;3.42;;;8.90;99.90;;;;;;5128550;28;20598;-72
2021/11/07 07:07:35;;;;;;;22.73;3.63;;;8.90;99.90;;;;;;5127827;28;20126;-71
2021/11/07 07:10:04;;;;;;;22.92;3.50;;;8.80;99.90;;;;;;5108536;28;20414;-71
2021/11/07 07:12:45;;;;;;;18.38;3.45;;;8.80;99.90;;;;;;5124147;27;20516;-72
2021/11/07 07:15:50;;;;;;;16.73;3.58;;;8.90;99.90;;;;;;5112805;28;20052;-71
2021/11/07 07:20:53;;;;;;;20.50;4.22;;;8.90;99.90;;;;;;5115899;27;20711;-71
2021/11/07 07:23:49;;;;;;;22.23;4.10;;;9.00;99.90;;;;;;5121957;27;20058;-71
2021/11/07 07:33:53;;;;;;;20.15;3.50;;;8.80;99.90;;;;;;5133096;27;20039;-73
2021/11/07 07:36:19;;;;;;;18.08;3.70;;;8.80;99.90;;;;;;5133233;27;20043;-73
2021/11/07 07:38:45;;;;;;;20.50;3.50;;;8.70;99.90;;;;;;5133021;27;20424;-74
2021/11/07 07:41:11;;;;;;;26.50;4.30;;;8.70;99.90;;;;;;5146929;27;20043;-72
2021/11/07 07:43:39;;;;;;;17.33;3.35;;;8.70;99.90;;;;;;5094093;28;20512;-72
2021/11/07 07:46:11;;;;;;;15.73;4.35;;;8.60;99.90;;;;;;5082753;27;20062;-73
2021/11/07 07:48:43;;;;;;;15.73;3.38;;;8.60;99.90;;;;;;5132762;27;20513;-73
2021/11/07 07:51:11;;;;;;;18.33;3.88;;;8.70;99.90;;;;;;5114433;27;20054;-73
2021/11/07 07:53:37;;;;;;;16.08;3.38;;;8.70;99.90;;;;;;5132941;27;20050;-71
2021/11/07 07:56:04;;;;;;;15.48;2.50;;;8.80;99.90;;;;;;5112996;27;20047;-70
2021/11/07 07:58:30;;;;;;;12.00;2.78;;;8.80;99.90;;;;;;5113498;27;20063;-70
2021/11/07 08:00:55;;;;;;;12.05;2.92;;;8.90;99.90;;;;;;5130911;27;20081;-70
2021/11/07 08:03:22;;;;;;;12.57;2.70;;;8.80;99.90;;;;;;5132384;27;20121;-71
2021/11/07 08:05:48;;;;;;;14.75;2.42;;;8.80;99.90;;;;;;5134157;27;20490;-70
2021/11/07 08:08:14;;;;;;;17.88;3.20;;;8.80;99.90;;;;;;5111974;28;20047;-70
2021/11/07 08:10:43;;;;;;;12.52;2.58;;;8.70;99.90;;;;;;5112120;27;20065;-70
2021/11/07 08:13:09;;;;;;;15.90;3.22;;;8.70;99.90;;;;;;5108864;28;20042;-70
2021/11/07 08:15:35;;;;;;;16.33;3.15;;;8.70;99.90;;;;;;5111802;28;20039;-70
2021/11/07 08:18:01;;;;;;;14.52;3.00;;;8.70;99.90;;;;;;5111357;28;20043;-71
2021/11/07 08:20:27;;;;;;;14.68;3.28;;;8.80;99.90;;;;;;5114894;27;20039;-71
2021/11/07 08:22:53;;;;;;;18.48;3.22;;;8.90;99.90;;;;;;5131795;27;20036;-71
2021/11/07 08:25:21;;;;;;;17.65;3.63;;;9.00;99.90;;;;;;5121290;27;20043;-70
2021/11/07 08:27:49;;;;;;;17.20;3.88;;;9.00;99.90;;;;;;5111080;28;20047;-70
2021/11/07 08:30:17;;;;;;;17.98;3.00;;;9.10;99.90;;;;;;5122751;27;20462;-71
2021/11/07 08:32:43;;;;;;;15.45;2.85;;;9.20;99.90;;;;;;5118414;27;20043;-71
2021/11/07 08:35:13;;;;;;;21.42;3.20;;;9.30;99.90;;;;;;5120799;27;20046;-70
2021/11/07 08:37:51;;;;;;;17.30;3.25;;;9.40;99.90;;;;;;5103051;27;20039;-70
2021/11/07 08:40:24;;;;;;;16.35;3.03;;;9.50;99.90;;;;;;5122221;27;20074;-71
2021/11/07 08:42:57;;;;;;;22.48;3.45;;;9.60;99.90;;;;;;5124312;27;20515;-70
2021/11/07 09:09:27;;;;;;;20.50;4.22;;;9.70;99.90;;;;;;5123540;27;20090;-72
2021/11/07 09:11:54;;;;;;;20.90;4.03;;;9.80;99.90;;;;;;5117672;27;20046;-72
2021/11/07 09:14:24;;;;;;;19.00;3.55;;;9.90;99.90;;;;;;5102221;27;20043;-72
2021/11/07 09:16:51;;;;;;;16.58;3.75;;;10.10;99.90;;;;;;5119363;27;20047;-72
2021/11/07 09:19:21;;;;;;;17.10;3.20;;;10.10;99.90;;;;;;5117872;27;20073;-72
2021/11/07 09:21:51;;;;;;;22.73;3.45;;;10.10;99.90;;;;;;5120543;27;20580;-73
2021/11/07 09:24:28;;;;;;;19.20;3.47;;;10.10;99.90;;;;;;5111240;27;20083;-74
2021/11/07 09:26:55;;;;;;;15.45;2.70;;;10.10;99.90;;;;;;5135185;27;20040;-74
2021/11/07 09:29:43;;;;;;;17.10;3.88;;;10.20;99.90;;;;;;5098555;27;20435;-74
2021/11/07 09:34:45;;;;;;;15.95;3.10;;;10.30;99.90;;;;;;5109051;28;20079;-74
2021/11/07 09:37:30;;;;;;;13.20;2.90;;;10.30;99.90;;;;;;5113058;27;20043;-74
2021/11/07 09:40:03;;;;;;;17.95;3.10;;;10.30;99.90;;;;;;5118882;27;20114;-72
2021/11/07 09:45:41;;;;;;;14.88;2.78;;;10.40;99.90;;;;;;5125861;27;20039;-71
2021/11/07 09:50:38;;;;;;;18.80;3.42;;;10.50;99.90;;;;;;5118771;27;20126;-72
2021/11/07 09:53:04;;;;;;;18.77;2.85;;;10.60;99.90;;;;;;5109780;28;20043;-71
2021/11/07 09:55:31;;;;;;;18.38;3.53;;;10.60;99.90;;;;;;5115752;27;20046;-71
2021/11/07 09:58:03;;;;;;;15.63;3.50;;;10.70;99.90;;;;;;5119111;27;20059;-71
2021/11/07 10:00:39;;;;;;;14.82;3.88;;;10.90;99.90;;;;;;5102346;27;20051;-70
2021/11/07 10:03:05;;;;;;;16.88;3.13;;;11.00;99.90;;;;;;5112065;27;20042;-70
2021/11/07 10:05:40;;;;;;;20.63;3.38;;;11.00;99.90;;;;;;5108685;28;20056;-71
2021/11/07 10:08:09;;;;;;;17.85;2.75;;;10.90;99.90;;;;;;5111519;27;20051;-70
2021/11/07 10:10:41;;;;;;;17.85;2.83;;;10.70;99.90;;;;;;5123217;27;20135;-69
2021/11/07 10:13:17;;;;;;;21.88;3.33;;;10.50;99.90;;;;;;5123492;27;20047;-70
2021/11/07 10:15:52;;;;;;;19.20;3.38;;;10.20;99.90;;;;;;5116837;27;20700;-70
2021/11/07 10:18:36;;;;;;;17.25;3.00;;;10.10;99.90;;;;;;5111779;27;20589;-70
2021/11/07 10:21:37;;;;;;;16.88;3.15;;;9.90;99.90;;;;;;5126176;27;20250;-69
2021/11/07 10:24:09;;;;;;;18.27;3.50;;;9.70;99.90;;;;;;5109520;27;20047;-69
2021/11/07 10:26:39;;;;;;;15.05;2.75;;;9.40;99.90;;;;;;5108384;27;20051;-70
2021/11/07 10:29:08;;;;;;;18.10;3.35;;;9.20;99.90;;;;;;5093609;27;20565;-69
2021/11/07 10:31:44;;;;;;;23.40;3.75;;;9.00;99.90;;;;;;5122816;27;20043;-69
2021/11/07 10:42:50;;;;;;;23.95;3.97;;;9.50;99.90;;;;;;5111181;27;20051;-70
2021/11/07 10:45:25;;;;;;;25.60;3.95;;;9.80;99.90;;;;;;5111877;27;20119;-71
2021/11/07 10:52:02;;;;;;;20.15;3.47;;;10.00;99.90;;;;;;5127695;27;20047;-71
2021/11/07 10:53:57;;;;;;;18.95;3.90;;;10.30;99.90;;;;;;5128503;27;20115;-70
2021/11/07 10:56:23;;;;;;;17.05;2.92;;;10.30;99.90;;;;;;5118022;27;20056;-71
2021/11/07 10:58:51;;;;;;;20.17;4.10;;;10.30;99.90;;;;;;5124711;27;20066;-70
2021/11/07 11:01:21;;;;;;;19.10;2.83;;;10.20;99.90;;;;;;5120147;27;20047;-71
2021/11/07 11:03:59;;;;;;;15.63;2.60;;;10.10;99.90;;;;;;5095590;28;20047;-70
2021/11/07 11:06:26;;;;;;;14.50;2.70;;;10.00;99.90;;;;;;5111925;28;20051;-70
2021/11/07 11:08:56;;;;;;;18.73;3.40;;;9.80;99.90;;;;;;5111026;28;20144;-70
2021/11/07 11:14:27;;;;;;;19.50;3.03;;;9.70;99.90;;;;;;5118423;28;20039;-71
2021/11/07 11:26:03;;;;;;;15.15;3.00;;;9.60;99.90;;;;;;5094446;28;20053;-74
2021/11/07 11:33:14;;;;;;;15.75;3.08;;;9.60;99.90;;;;;;5110497;28;20106;-70
2021/11/07 11:43:15;;;;;;;16.55;2.85;;;10.10;99.90;;;;;;5122754;28;20082;-71
2021/11/07 11:45:44;;;;;;;16.50;2.88;;;10.30;99.90;;;;;;5120299;28;20396;-71
2021/11/07 12:01:22;;;;;;;13.63;3.13;;;10.20;99.90;;;;;;5119738;27;20062;-71
2021/11/07 12:04:05;;;;;;;21.77;3.22;;;10.20;99.90;;;;;;5107904;27;20042;-71
2021/11/07 12:09:26;;;;;;;19.73;3.38;;;10.50;99.90;;;;;;5132644;27;20047;-70
2021/11/07 12:11:58;;;;;;;17.40;3.92;;;10.40;99.90;;;;;;5119052;27;20494;-70
2021/11/07 12:14:32;;;;;;;17.25;3.53;;;10.30;99.90;;;;;;5112006;28;20176;-70
2021/11/07 12:17:04;;;;;;;16.48;3.00;;;10.20;99.90;;;;;;5110807;27;20054;-74
2021/11/07 12:19:41;;;;;;;19.38;3.42;;;10.10;99.90;;;;;;5126359;27;20047;-70
2021/11/07 12:22:07;;;;;;;15.80;3.25;;;9.90;99.90;;;;;;5131937;27;20504;-70
2021/11/07 12:24:48;;;;;;;19.40;3.45;;;9.80;99.90;;;;;;5130669;27;20047;-71
2021/11/07 12:27:28;;;;;;;19.10;3.20;;;9.80;99.90;;;;;;5114345;27;20122;-71
2021/11/07 12:30:13;;;;;;;17.42;3.35;;;9.70;99.90;;;;;;5100594;27;20050;-69
2021/11/07 12:32:41;;;;;;;20.17;4.10;;;9.80;99.90;;;;;;5114701;27;20646;-70
2021/11/07 12:35:22;;;;;;;20.63;4.38;;;9.80;99.90;;;;;;5116051;27;20036;-70
2021/11/07 12:40:59;;;;;;;19.48;3.47;;;9.80;99.90;;;;;;5111267;28;20079;-69
2021/11/07 12:43:31;;;;;;;22.35;4.05;;;9.60;99.90;;;;;;5116106;27;20517;-70
2021/11/07 12:46:19;;;;;;;23.98;4.15;;;9.50;99.90;;;;;;5100050;27;20058;-70
2021/11/07 12:49:12;;;;;;;24.67;4.18;;;9.40;99.90;;;;;;5102710;27;20505;-70
2021/11/07 12:51:46;;;;;;;18.27;3.63;;;9.40;99.90;;;;;;5119122;27;20043;-70
2021/11/07 12:54:14;;;;;;;18.30;3.45;;;9.30;99.90;;;;;;5112444;27;20081;-70
2021/11/07 12:56:43;;;;;;;19.80;3.92;;;9.30;99.90;;;;;;5113955;27;20082;-71
2021/11/07 12:59:16;;;;;;;19.63;4.35;;;9.40;99.90;;;;;;5112020;27;20125;-70
2021/11/07 13:02:02;;;;;;;20.60;4.15;;;9.40;99.90;;;;;;5111903;27;20516;-70
2021/11/07 13:04:53;;;;;;;23.77;4.25;;;9.50;99.90;;;;;;5097128;27;20092;-71
2021/11/07 13:07:47;;;;;;;24.33;5.07;;;9.60;99.90;;;;;;5091822;28;20724;-70
2021/11/07 13:10:25;;;;;;;23.67;4.65;;;9.70;99.90;;;;;;5120958;27;20039;-70
2021/11/07 13:12:56;;;;;;;21.25;4.10;;;9.80;99.90;;;;;;5119206;27;20047;-70
2021/11/07 13:26:20;;;;;;;17.10;3.25;;;10.10;99.90;;;;;;5110103;27;20067;-70
2021/11/07 13:28:42;;;;;;;19.75;3.90;;;10.30;99.90;;;;;;5116261;27;20387;-70
2021/11/07 13:31:24;;;;;;;19.27;3.67;;;10.30;99.90;;;;;;5111759;27;20055;-70
2021/11/07 13:33:50;;;;;;;18.45;3.65;;;10.40;99.90;;;;;;5096767;28;20070;-70
2021/11/07 13:36:18;;;;;;;23.02;3.42;;;10.30;99.90;;;;;;5111537;27;20079;-71
2021/11/07 13:38:46;;;;;;;17.67;3.38;;;10.30;99.90;;;;;;5114228;27;20115;-70
2021/11/07 13:41:16;;;;;;;21.45;4.07;;;10.30;99.90;;;;;;5073996;27;20046;-69
2021/11/07 13:43:44;;;;;;;25.88;4.55;;;10.20;99.90;;;;;;5116492;27;20069;-70
2021/11/07 13:46:11;;;;;;;19.40;4.15;;;10.30;99.90;;;;;;5125012;27;20068;-71
2021/11/07 13:48:37;;;;;;;19.30;3.78;;;10.30;99.90;;;;;;5117878;27;20130;-71
2021/11/07 13:51:04;;;;;;;16.25;3.90;;;10.30;99.90;;;;;;5106173;27;20718;-70
2021/11/07 13:53:40;;;;;;;24.23;4.00;;;10.20;99.90;;;;;;5127113;27;20050;-71
2021/11/07 13:56:12;;;;;;;16.70;3.33;;;10.20;99.90;;;;;;5123168;27;20099;-72
2021/11/07 13:58:41;;;;;;;18.38;3.88;;;10.10;99.90;;;;;;5110245;28;20055;-71
2021/11/07 14:01:11;;;;;;;20.05;3.67;;;10.00;99.90;;;;;;5108318;28;20043;-72
2021/11/07 14:03:43;;;;;;;15.60;3.78;;;10.00;99.90;;;;;;5110004;28;20390;-73
2021/11/07 14:06:12;;;;;;;18.98;3.78;;;10.00;99.90;;;;;;5108861;28;20032;-72
2021/11/07 14:08:44;;;;;;;18.20;3.10;;;9.90;99.90;;;;;;5109299;28;20490;-72
2021/11/07 14:11:11;;;;;;;20.48;3.90;;;9.90;99.90;;;;;;5109025;27;20043;-72
2021/11/07 14:13:42;;;;;;;16.58;3.65;;;9.90;99.90;;;;;;5130469;27;20061;-71
2021/11/07 14:16:09;;;;;;;19.00;4.00;;;9.90;99.90;;;;;;5122945;27;20040;-72
2021/11/07 14:18:43;;;;;;;21.15;3.47;;;9.90;99.90;;;;;;5109505;28;20036;-72
2021/11/07 14:21:09;;;;;;;19.10;3.67;;;10.00;99.90;;;;;;5118060;27;20393;-75
2021/11/07 14:23:49;;;;;;;22.65;4.43;;;10.10;99.90;;;;;;5129632;27;20035;-75
2021/11/07 14:26:40;;;;;;;20.15;3.65;;;10.10;99.90;;;;;;5124300;27;20046;-75
2021/11/07 14:29:19;;;;;;;21.90;3.92;;;10.10;99.90;;;;;;5113007;27;20118;-75
2021/11/07 14:35:03;;;;;;;23.50;4.45;;;10.00;99.90;;;;;;5129586;27;20042;-74
2021/11/07 14:38:09;;;;;;;21.50;4.20;;;9.90;99.90;;;;;;5129578;27;20527;-71
2021/11/07 14:40:38;;;;;;;27.27;5.35;;;9.90;99.90;;;;;;5125227;27;20047;-74
2021/11/07 14:43:29;;;;;;;17.88;3.83;;;9.80;99.90;;;;;;5110793;27;20054;-70
2021/11/07 14:51:56;;;;;;;;;;;9.30;99.90;;;;;;5091163;28;20079;-70
2021/11/07 14:54:36;;;;;;;21.70;3.65;;;9.10;99.90;;;;;;5097581;28;19974;-70
2021/11/07 14:57:22;;;;;;;22.52;4.65;;;9.00;99.90;;;;;;5125788;27;20059;-69
2021/11/07 15:05:29;;;;;;;17.70;3.47;;;8.90;99.90;;;;;;5110217;28;20043;-70
2021/11/07 15:08:45;;;;;;;17.52;3.17;;;8.80;99.90;;;;;;5111988;28;20063;-71
2021/11/07 15:24:25;;;;;;;17.38;3.13;;;8.60;99.90;;;;;;5112024;28;20051;-71
2021/11/07 15:26:57;;;;;;;14.35;2.90;;;8.60;99.90;;;;;;5106335;28;20490;-70
2021/11/07 15:29:55;;;;;;;17.08;2.85;;;8.60;99.90;;;;;;5093820;28;20607;-71
2021/11/07 15:32:30;;;;;;;10.73;2.25;;;8.60;99.90;;;;;;5110646;28;20478;-71
2021/11/07 15:34:56;;;;;;;13.73;2.15;;;8.60;99.90;;;;;;5123761;27;20100;-70
2021/11/07 15:37:28;;;;;;;12.02;2.60;;;8.60;99.90;;;;;;5105791;27;20115;-71